Time;durP1;ratioP1;P1;durP2;ratioP2;P2;SDS_P1;SDS_P2;PMS_P1;PMS_P2;Temp;Humidity;BMP_temperature;BMP_pressure;BME280_temperature;BME280_humidity;BME280_pressure;Samples;Min_cycle;Max_cycle;Signal;HPM_P1;HPM_P2
2022/07/07 00:01:07;;;;;;;7.07;4.85;;;;;;;20.82;70.64;94883.88;5122323;28;20259;-78
2022/07/07 00:03:32;;;;;;;16.05;6.07;;;;;;;20.75;71.08;94894.06;5118347;28;20265;-77
2022/07/07 00:05:59;;;;;;;4.70;4.20;;;;;;;20.34;71.54;94843.34;5111519;28;20603;-77
2022/07/07 00:08:24;;;;;;;5.13;4.57;;;;;;;20.62;71.52;94879.38;5115099;28;20212;-77
2022/07/07 00:10:49;;;;;;;5.90;4.63;;;;;;;20.67;71.43;94892.72;5116410;28;20169;-77
2022/07/07 00:13:15;;;;;;;3.90;3.60;;;;;;;20.60;71.65;94883.41;5123275;27;20221;-77
2022/07/07 00:15:45;;;;;;;6.20;4.22;;;;;;;20.52;71.66;94874.06;5130985;27;20669;-77
2022/07/07 00:18:11;;;;;;;5.40;4.70;;;;;;;20.66;71.77;94872.44;5124278;27;20676;-77
2022/07/07 00:20:36;;;;;;;4.68;3.72;;;;;;;20.95;71.46;94895.84;5128358;27;20206;-77
2022/07/07 00:23:02;;;;;;;4.07;3.67;;;;;;;21.10;70.65;94898.47;5128803;27;20257;-77
2022/07/07 00:25:27;;;;;;;4.18;3.30;;;;;;;21.09;69.48;94895.00;5115427;28;20195;-78
2022/07/07 00:27:52;;;;;;;4.72;4.22;;;;;;;20.85;71.01;94895.88;5120864;27;20187;-77
2022/07/07 00:30:18;;;;;;;7.03;3.92;;;;;;;20.70;70.79;94878.00;5127169;27;20177;-77
2022/07/07 00:32:44;;;;;;;6.63;5.07;;;;;;;20.90;71.24;94896.69;5132481;27;20211;-77
2022/07/07 00:35:09;;;;;;;6.80;3.88;;;;;;;20.89;70.26;94891.59;5115218;28;20229;-77
2022/07/07 00:37:34;;;;;;;8.90;4.93;;;;;;;20.70;70.71;94865.44;5125021;27;20220;-77
2022/07/07 00:40:00;;;;;;;4.68;4.10;;;;;;;20.82;70.32;94891.91;5135779;27;20182;-77
2022/07/07 00:42:25;;;;;;;5.53;4.00;;;;;;;20.82;70.40;94889.22;5135720;27;20567;-77
2022/07/07 00:44:50;;;;;;;6.55;3.78;;;;;;;20.92;70.64;94891.88;5127530;27;20556;-77
2022/07/07 00:47:19;;;;;;;6.78;5.32;;;;;;;20.70;70.23;94854.75;5120655;27;20168;-77
2022/07/07 00:49:45;;;;;;;19.05;13.10;;;;;;;21.07;69.75;94891.78;5125004;27;20196;-78
2022/07/07 00:52:11;;;;;;;6.03;4.05;;;;;;;20.87;69.41;94865.09;5135584;27;20236;-77
2022/07/07 00:54:37;;;;;;;7.43;4.60;;;;;;;21.00;69.46;94877.09;5118663;27;20713;-77
2022/07/07 00:57:04;;;;;;;6.00;4.35;;;;;;;21.03;69.27;94885.38;5115062;28;20283;-77
2022/07/07 00:59:29;;;;;;;7.70;6.07;;;;;;;21.06;69.26;94887.50;5130418;27;20679;-78
2022/07/07 01:01:56;;;;;;;12.07;6.90;;;;;;;20.95;69.39;94869.88;5135436;27;20172;-78
2022/07/07 01:04:21;;;;;;;4.85;3.50;;;;;;;21.13;68.08;94892.56;5135669;27;20178;-78
2022/07/07 01:06:47;;;;;;;3.53;3.22;;;;;;;21.14;68.32;94896.84;5135529;27;20252;-78
2022/07/07 01:09:13;;;;;;;5.10;4.13;;;;;;;21.06;68.25;94881.34;5123527;27;20184;-78
2022/07/07 01:11:46;;;;;;;5.30;3.28;;;;;;;21.08;68.25;94897.94;5130193;27;20288;-77
2022/07/07 01:14:11;;;;;;;6.35;3.95;;;;;;;21.09;68.68;94892.31;5115545;27;20181;-77
2022/07/07 01:16:36;;;;;;;4.65;3.05;;;;;;;21.10;68.18;94898.47;5114525;28;20215;-77
2022/07/07 01:19:02;;;;;;;4.07;3.00;;;;;;;21.03;68.08;94895.28;5123593;27;20199;-78
2022/07/07 01:21:32;;;;;;;5.22;3.53;;;;;;;20.82;68.17;94867.81;5122704;27;20173;-78
2022/07/07 01:23:57;;;;;;;7.88;5.93;;;;;;;21.00;68.14;94898.53;5114379;28;20280;-78
2022/07/07 01:26:22;;;;;;;11.05;8.38;;;;;;;21.02;68.19;94897.16;5113911;28;20208;-78
2022/07/07 01:28:48;;;;;;;4.68;3.80;;;;;;;21.00;67.54;94898.53;5114562;28;20626;-78
2022/07/07 01:31:14;;;;;;;13.55;9.75;;;;;;;20.94;68.53;94895.03;5117107;27;20173;-78
2022/07/07 01:33:39;;;;;;;22.52;16.08;;;;;;;20.89;68.10;94886.25;5117843;27;20237;-78
2022/07/07 01:36:05;;;;;;;27.38;17.60;;;;;;;20.98;67.77;94906.00;5114068;28;20184;-77
2022/07/07 01:38:30;;;;;;;16.67;12.13;;;;;;;20.97;68.59;94896.38;5116916;27;20246;-77
2022/07/07 01:40:55;;;;;;;5.45;4.07;;;;;;;20.91;68.36;94892.94;5129494;27;20188;-78
2022/07/07 01:43:21;;;;;;;4.70;3.90;;;;;;;20.71;68.51;94893.81;5130763;27;20177;-77
2022/07/07 01:45:46;;;;;;;9.38;5.15;;;;;;;20.74;68.74;94894.34;5115922;27;20181;-77
2022/07/07 01:48:12;;;;;;;6.22;4.65;;;;;;;20.79;68.34;94891.63;5131349;27;20674;-77
2022/07/07 01:50:37;;;;;;;5.38;4.15;;;;;;;20.43;68.30;94853.50;5122889;27;20300;-77
2022/07/07 01:53:02;;;;;;;6.20;4.25;;;;;;;20.54;68.79;94868.44;5113591;28;20709;-77
2022/07/07 01:55:28;;;;;;;3.80;3.13;;;;;;;20.75;68.56;94891.41;5116057;27;20257;-77
2022/07/07 01:57:54;;;;;;;3.67;3.20;;;;;;;20.76;68.16;94892.97;5119545;27;20287;-77
2022/07/07 02:00:19;;;;;;;6.78;3.63;;;;;;;20.77;68.94;94886.53;5122368;27;20567;-77
2022/07/07 02:02:44;;;;;;;4.85;3.67;;;;;;;20.75;67.98;94886.03;5122377;27;20259;-77
2022/07/07 02:05:10;;;;;;;3.95;3.25;;;;;;;20.74;68.18;94886.31;5116212;27;20599;-77
2022/07/07 02:07:35;;;;;;;4.30;3.28;;;;;;;20.77;68.32;94888.41;5128615;27;20196;-77
2022/07/07 02:10:01;;;;;;;4.18;2.60;;;;;;;20.70;67.69;94880.69;5113341;28;20286;-77
2022/07/07 02:12:26;;;;;;;6.72;5.28;;;;;;;20.61;67.88;94885.81;5122233;27;20190;-77
2022/07/07 02:14:52;;;;;;;7.93;6.20;;;;;;;20.50;67.78;94862.81;5113261;28;20633;-77
2022/07/07 02:17:17;;;;;;;8.07;5.28;;;;;;;20.61;67.54;94885.00;5113013;28;20254;-77
2022/07/07 02:19:43;;;;;;;16.30;8.77;;;;;;;20.61;67.89;94890.34;5113174;28;20690;-77
2022/07/07 02:22:09;;;;;;;3.55;2.90;;;;;;;20.39;67.22;94887.22;5123058;27;20283;-77
2022/07/07 02:24:34;;;;;;;2.70;2.50;;;;;;;20.17;68.08;94892.81;5133702;27;20894;-77
2022/07/07 02:27:00;;;;;;;4.55;3.20;;;;;;;20.23;68.41;94889.09;5133302;27;20672;-77
2022/07/07 02:29:25;;;;;;;8.23;3.38;;;;;;;20.29;68.65;94888.00;5116386;27;20208;-77
2022/07/07 02:31:50;;;;;;;4.22;2.35;;;;;;;20.23;67.53;94883.75;5112698;28;20188;-77
2022/07/07 02:34:16;;;;;;;4.68;2.63;;;;;;;20.26;67.32;94885.84;5125585;27;20247;-77
2022/07/07 02:36:41;;;;;;;8.60;2.67;;;;;;;20.11;67.76;94894.72;5130120;27;20720;-77
2022/07/07 02:39:07;;;;;;;3.13;2.47;;;;;;;20.07;67.45;94888.28;5123662;27;20228;-76
2022/07/07 02:41:32;;;;;;;3.47;3.17;;;;;;;20.02;67.94;94887.50;5125209;27;20251;-76
2022/07/07 02:43:57;;;;;;;3.35;2.60;;;;;;;19.92;68.19;94890.97;5128978;27;20268;-76
2022/07/07 02:46:23;;;;;;;3.22;2.83;;;;;;;19.77;68.49;94886.44;5112098;28;20181;-76
2022/07/07 02:48:48;;;;;;;3.20;2.90;;;;;;;19.73;68.71;94889.91;5129639;27;20164;-77
2022/07/07 02:51:14;;;;;;;3.45;3.15;;;;;;;19.57;69.17;94887.22;5117961;27;20173;-77
2022/07/07 02:53:39;;;;;;;3.88;2.55;;;;;;;19.34;69.89;94870.88;5116670;27;20260;-77
2022/07/07 02:56:05;;;;;;;2.83;2.63;;;;;;;19.11;70.14;94862.28;5114177;27;20177;-77
2022/07/07 02:58:31;;;;;;;4.03;2.50;;;;;;;19.10;70.87;94887.38;5116508;27;20173;-77
2022/07/07 03:00:57;;;;;;;2.75;2.50;;;;;;;19.19;70.71;94869.00;5129032;27;20187;-77
2022/07/07 03:03:22;;;;;;;3.50;3.15;;;;;;;19.22;70.20;94893.28;5120364;27;20596;-77
2022/07/07 03:05:48;;;;;;;2.75;2.40;;;;;;;19.30;70.29;94885.81;5115242;27;20172;-76
2022/07/07 03:08:13;;;;;;;4.90;2.65;;;;;;;19.40;70.13;94897.31;5104354;27;20164;-77
2022/07/07 03:10:39;;;;;;;4.35;2.60;;;;;;;19.37;69.52;94897.84;5113213;28;20176;-77
2022/07/07 03:13:04;;;;;;;2.60;2.40;;;;;;;19.47;69.44;94903.22;5113700;27;20173;-77
2022/07/07 03:15:30;;;;;;;4.65;2.30;;;;;;;19.56;68.98;94908.84;5125401;27;20685;-77
2022/07/07 03:17:56;;;;;;;3.85;3.20;;;;;;;19.69;69.35;94916.38;5126537;27;20200;-77
2022/07/07 03:20:22;;;;;;;2.55;2.35;;;;;;;19.87;68.77;94902.47;5112489;27;20595;-76
2022/07/07 03:22:48;;;;;;;4.22;3.15;;;;;;;19.96;68.70;94905.41;5128961;27;20183;-76
2022/07/07 03:25:14;;;;;;;4.22;2.17;;;;;;;20.10;68.36;94909.13;5128394;27;20169;-76
2022/07/07 03:27:39;;;;;;;2.38;2.17;;;;;;;20.16;67.85;94907.25;5111719;28;20180;-77
2022/07/07 03:30:07;;;;;;;2.65;2.38;;;;;;;20.26;68.15;94899.22;5111587;28;20181;-77
2022/07/07 03:32:33;;;;;;;2.53;2.33;;;;;;;20.32;67.35;94890.91;5124895;27;20668;-77
2022/07/07 03:34:59;;;;;;;3.72;2.70;;;;;;;20.32;66.87;94876.78;5127786;27;20221;-77
2022/07/07 03:37:24;;;;;;;5.80;3.85;;;;;;;20.40;66.55;94884.28;5122900;27;20745;-77
2022/07/07 03:39:50;;;;;;;5.25;2.80;;;;;;;20.55;66.22;94889.56;5112546;28;20180;-77
2022/07/07 03:42:15;;;;;;;5.05;3.85;;;;;;;20.76;65.51;94908.25;5123201;27;20186;-77
2022/07/07 03:44:41;;;;;;;4.22;3.22;;;;;;;20.83;65.76;94906.09;5113274;28;20260;-77
2022/07/07 03:47:06;;;;;;;3.65;2.35;;;;;;;20.76;64.92;94916.28;5122257;28;20169;-78
2022/07/07 03:49:32;;;;;;;5.55;3.67;;;;;;;20.63;65.66;94875.63;5120795;28;20200;-77
2022/07/07 03:51:57;;;;;;;4.15;3.50;;;;;;;20.83;65.41;94906.09;5118351;28;20172;-77
2022/07/07 03:54:24;;;;;;;4.32;3.92;;;;;;;20.59;65.73;94871.91;5116612;28;20252;-77
2022/07/07 03:56:50;;;;;;;6.30;4.03;;;;;;;20.91;66.35;94906.31;5098704;28;20205;-77
2022/07/07 03:59:15;;;;;;;3.75;2.80;;;;;;;21.07;65.93;94910.53;5110420;28;20209;-77
2022/07/07 04:01:45;;;;;;;4.32;2.63;;;;;;;21.24;63.88;94912.88;5099645;28;20174;-76
2022/07/07 04:04:14;;;;;;;4.95;3.70;;;;;;;21.39;63.79;94912.78;5096386;28;20212;-77
2022/07/07 04:06:40;;;;;;;4.88;2.63;;;;;;;21.35;62.93;94909.09;5100096;28;20173;-77
2022/07/07 04:09:06;;;;;;;8.20;5.78;;;;;;;21.46;64.43;94913.28;5107420;28;20185;-77
2022/07/07 04:11:32;;;;;;;3.50;2.67;;;;;;;21.51;63.53;94908.97;5105349;28;20177;-77
2022/07/07 04:13:57;;;;;;;4.22;2.42;;;;;;;21.71;63.61;94906.94;5105428;28;20267;-77
2022/07/07 04:16:23;;;;;;;4.13;2.95;;;;;;;21.94;63.83;94912.69;5116871;28;20231;-77
2022/07/07 04:18:48;;;;;;;7.85;3.53;;;;;;;22.17;62.77;94912.00;5128717;28;20204;-77
2022/07/07 04:21:14;;;;;;;2.97;2.65;;;;;;;22.37;63.25;94906.44;5117813;28;20263;-77
2022/07/07 04:23:40;;;;;;;4.70;3.00;;;;;;;22.67;62.14;94913.38;5118710;28;20172;-76
2022/07/07 04:26:05;;;;;;;6.30;4.13;;;;;;;22.89;60.65;94924.44;5131616;28;20183;-77
2022/07/07 04:28:30;;;;;;;3.55;3.00;;;;;;;23.09;59.79;94919.94;5128715;28;20168;-77
2022/07/07 04:30:56;;;;;;;6.18;2.20;;;;;;;23.28;58.53;94923.44;5103787;28;20177;-77
2022/07/07 04:33:22;;;;;;;2.55;2.25;;;;;;;23.31;59.14;94894.09;5107932;28;20237;-77
2022/07/07 04:35:48;;;;;;;3.42;1.85;;;;;;;23.69;57.87;94918.34;5130169;28;20176;-77
2022/07/07 04:38:13;;;;;;;4.38;2.17;;;;;;;23.89;56.74;94925.28;5131134;28;20585;-77
2022/07/07 04:40:39;;;;;;;1.90;1.80;;;;;;;24.05;56.19;94929.34;5117301;28;20244;-78
2022/07/07 04:43:05;;;;;;;4.03;2.05;;;;;;;24.18;56.39;94933.19;5116205;28;20188;-77
2022/07/07 04:45:30;;;;;;;3.05;2.05;;;;;;;24.16;55.97;94933.47;5117252;28;20180;-76
2022/07/07 04:47:56;;;;;;;7.07;2.20;;;;;;;24.11;56.40;94912.03;5115681;28;20169;-76
2022/07/07 04:50:21;;;;;;;7.55;2.00;;;;;;;24.29;55.69;94924.69;5120247;28;20180;-76
2022/07/07 04:52:47;;;;;;;3.05;2.03;;;;;;;24.59;55.62;94936.00;5131563;28;20523;-78
2022/07/07 04:55:12;;;;;;;9.10;1.80;;;;;;;24.58;53.69;94937.09;5121378;28;20172;-78
2022/07/07 04:57:38;;;;;;;5.32;2.00;;;;;;;24.46;55.25;94904.47;5092751;28;20228;-78
2022/07/07 05:00:04;;;;;;;2.33;1.90;;;;;;;24.81;52.82;94941.53;5111221;28;20173;-78
2022/07/07 05:02:29;;;;;;;12.10;2.85;;;;;;;24.81;53.45;94936.16;5122562;27;20177;-77
2022/07/07 05:04:56;;;;;;;5.88;2.45;;;;;;;24.94;54.68;94927.28;5134560;27;20172;-77
2022/07/07 05:07:22;;;;;;;3.95;2.40;;;;;;;25.04;52.83;94934.38;5102527;28;20709;-78
2022/07/07 05:09:47;;;;;;;5.75;2.75;;;;;;;25.17;53.87;94934.38;5105316;28;20177;-78
2022/07/07 05:12:13;;;;;;;3.42;3.13;;;;;;;25.22;53.29;94933.47;5123911;27;20168;-78
2022/07/07 05:14:38;;;;;;;6.07;2.85;;;;;;;25.37;52.48;94929.66;5133978;27;20178;-78
2022/07/07 05:17:03;;;;;;;13.63;5.30;;;;;;;25.53;53.02;94918.25;5134261;27;20199;-78
2022/07/07 05:19:29;;;;;;;9.57;3.97;;;;;;;25.82;52.42;94928.69;5134218;27;20168;-77
2022/07/07 05:21:54;;;;;;;2.83;2.17;;;;;;;25.78;50.18;94925.00;5117077;27;20248;-78
2022/07/07 05:24:21;;;;;;;6.53;3.10;;;;;;;25.59;53.60;94915.47;5125428;27;20176;-78
2022/07/07 05:26:47;;;;;;;2.47;2.17;;;;;;;25.67;51.38;94926.34;5134878;27;20198;-78
2022/07/07 05:29:13;;;;;;;1.92;1.83;;;;;;;25.62;52.15;94921.06;5119417;27;20607;-78
2022/07/07 05:31:38;;;;;;;2.08;1.85;;;;;;;25.88;52.57;94922.06;5114174;28;20203;-78
2022/07/07 05:34:04;;;;;;;3.97;1.90;;;;;;;26.14;52.77;94929.56;5114018;28;20255;-78
2022/07/07 05:36:30;;;;;;;3.75;2.10;;;;;;;26.49;51.09;94934.13;5127691;27;20196;-79
2022/07/07 05:38:56;;;;;;;16.42;10.35;;;;;;;26.71;50.35;94935.22;5108970;28;20705;-78
2022/07/07 05:41:21;;;;;;;6.93;4.20;;;;;;;26.95;51.72;94938.38;5123477;27;20231;-79
2022/07/07 05:43:48;;;;;;;4.43;2.80;;;;;;;27.21;50.46;94938.47;5125764;27;20180;-79
2022/07/07 05:46:14;;;;;;;5.22;2.33;;;;;;;27.42;49.61;94937.53;5134798;27;20687;-79
2022/07/07 05:48:39;;;;;;;5.88;2.95;;;;;;;27.66;49.77;94939.88;5118559;27;20173;-79
2022/07/07 05:51:05;;;;;;;2.50;2.25;;;;;;;27.85;48.87;94947.66;5123568;27;21034;-79
2022/07/07 05:53:30;;;;;;;3.60;2.22;;;;;;;27.99;47.81;94950.25;5124080;27;20168;-78
2022/07/07 05:55:56;;;;;;;3.28;2.10;;;;;;;27.99;48.51;94950.25;5129444;27;20259;-78
2022/07/07 05:58:22;;;;;;;3.55;2.03;;;;;;;28.00;47.88;94928.28;5116998;27;20287;-78
2022/07/07 06:00:47;;;;;;;4.30;1.90;;;;;;;28.15;46.62;94927.78;5124622;27;20260;-78
2022/07/07 06:03:13;;;;;;;4.60;1.65;;;;;;;28.29;46.14;94940.38;5122751;27;20177;-78
2022/07/07 06:05:38;;;;;;;2.03;1.80;;;;;;;28.28;46.72;94930.69;5121330;27;20228;-78
2022/07/07 06:08:04;;;;;;;1.92;1.67;;;;;;;28.48;46.45;94947.03;5134073;27;20172;-78
2022/07/07 06:10:29;;;;;;;2.10;1.90;;;;;;;28.58;45.73;94945.13;5131046;27;20188;-78
2022/07/07 06:12:55;;;;;;;5.35;2.00;;;;;;;28.75;44.94;94955.91;5134023;27;20172;-78
2022/07/07 06:15:23;;;;;;;1.85;1.63;;;;;;;28.86;44.40;94959.91;5110075;28;20181;-78
2022/07/07 06:17:49;;;;;;;3.70;1.60;;;;;;;28.46;44.65;94959.31;5122255;27;20232;-78
2022/07/07 06:20:14;;;;;;;3.17;1.73;;;;;;;28.24;46.09;94964.91;5122431;27;20281;-79
2022/07/07 06:22:40;;;;;;;2.47;2.20;;;;;;;28.32;46.67;94958.69;5113239;28;20184;-79
2022/07/07 06:25:07;;;;;;;2.35;1.83;;;;;;;28.45;46.28;94946.91;5128593;27;20180;-79
2022/07/07 06:27:35;;;;;;;2.42;2.15;;;;;;;28.49;47.46;94969.50;5125529;27;20537;-79
2022/07/07 06:30:00;;;;;;;2.75;2.40;;;;;;;28.51;46.92;94948.31;5122527;27;20263;-79
2022/07/07 06:32:26;;;;;;;4.32;3.15;;;;;;;28.80;45.10;94959.25;5113521;28;20677;-79
2022/07/07 06:34:51;;;;;;;4.22;2.40;;;;;;;29.02;44.92;94954.75;5119928;27;20180;-79
2022/07/07 06:37:17;;;;;;;3.30;1.98;;;;;;;29.33;45.44;94949.03;5115425;27;20232;-79
2022/07/07 06:39:42;;;;;;;3.08;1.92;;;;;;;29.59;45.19;94952.41;5123980;27;20720;-79
2022/07/07 06:42:08;;;;;;;2.47;1.90;;;;;;;29.73;42.89;94925.84;5133810;27;20168;-79
2022/07/07 06:44:33;;;;;;;4.07;2.05;;;;;;;29.89;42.88;94943.13;5126703;27;20177;-79
2022/07/07 06:47:00;;;;;;;3.03;2.00;;;;;;;29.96;42.37;94943.41;5113464;28;20188;-79
2022/07/07 06:49:27;;;;;;;2.65;1.80;;;;;;;29.80;42.56;94934.25;5113064;28;20175;-79
2022/07/07 06:51:52;;;;;;;2.10;1.90;;;;;;;29.94;43.74;94945.66;5113602;28;20618;-79
2022/07/07 06:54:18;;;;;;;2.25;2.00;;;;;;;29.90;43.17;94935.78;5113114;28;20168;-79
2022/07/07 06:56:44;;;;;;;2.75;2.08;;;;;;;29.94;42.54;94936.72;5113050;28;20200;-79
2022/07/07 06:59:09;;;;;;;4.80;2.50;;;;;;;29.08;43.16;94953.44;5094645;28;20177;-79
2022/07/07 07:01:34;;;;;;;2.10;1.90;;;;;;;28.24;44.78;94949.47;5113116;28;20169;-80
2022/07/07 07:04:00;;;;;;;2.38;1.75;;;;;;;28.31;47.87;94955.19;5112897;28;20172;-80
2022/07/07 07:06:28;;;;;;;6.35;2.92;;;;;;;28.66;45.48;94947.81;5113142;28;20654;-80
2022/07/07 07:08:54;;;;;;;2.05;1.85;;;;;;;29.14;44.75;94946.75;5112988;28;20145;-80
2022/07/07 07:11:20;;;;;;;2.85;1.90;;;;;;;29.56;43.34;94925.94;5112509;28;20180;-79
2022/07/07 07:13:47;;;;;;;5.20;2.10;;;;;;;29.81;43.42;94922.25;5112473;28;20157;-79
2022/07/07 07:16:15;;;;;;;4.15;2.08;;;;;;;29.51;41.85;94939.69;5112596;28;20181;-80
2022/07/07 07:18:40;;;;;;;6.97;2.30;;;;;;;29.31;44.57;94943.16;5106355;28;20264;-79
2022/07/07 07:21:06;;;;;;;4.47;2.13;;;;;;;29.59;42.99;94939.66;5112217;28;20261;-78
2022/07/07 07:23:31;;;;;;;5.35;2.35;;;;;;;29.51;42.99;94929.63;5111661;28;20585;-78
2022/07/07 07:25:57;;;;;;;5.97;2.10;;;;;;;29.33;44.28;94930.81;5112445;28;20252;-80
2022/07/07 07:28:22;;;;;;;3.85;2.10;;;;;;;29.16;45.13;94920.06;5112537;28;20184;-80
2022/07/07 07:30:47;;;;;;;11.63;2.05;;;;;;;29.60;44.03;94924.94;5112449;28;20169;-80
2022/07/07 07:33:13;;;;;;;2.40;1.98;;;;;;;30.13;40.33;94934.34;5112460;28;20252;-80
2022/07/07 07:35:38;;;;;;;9.07;2.42;;;;;;;30.30;39.06;94917.09;5112606;28;20204;-80
2022/07/07 07:38:04;;;;;;;2.40;1.77;;;;;;;30.65;38.62;94956.41;5112035;28;20666;-79
2022/07/07 07:40:29;;;;;;;4.25;2.53;;;;;;;30.51;39.52;94944.22;5111999;28;20212;-80
2022/07/07 07:42:55;;;;;;;4.03;1.70;;;;;;;30.73;40.99;94925.63;5112404;28;20272;-81
2022/07/07 07:45:21;;;;;;;3.60;2.88;;;;;;;30.92;39.19;94929.75;5112457;28;20169;-81
2022/07/07 07:47:47;;;;;;;2.15;1.80;;;;;;;31.24;41.33;94938.97;5112694;28;20173;-81
2022/07/07 07:50:15;;;;;;;2.70;2.40;;;;;;;31.35;37.92;94940.91;5112270;28;20165;-80
2022/07/07 07:52:42;;;;;;;5.70;1.70;;;;;;;31.07;38.90;94935.34;5111948;28;20256;-78
2022/07/07 07:55:09;;;;;;;4.00;1.70;;;;;;;31.16;39.69;94937.97;5111778;28;20248;-79
2022/07/07 07:57:35;;;;;;;5.68;3.08;;;;;;;31.39;38.55;94941.03;5111971;28;20329;-78
2022/07/07 08:00:01;;;;;;;8.52;4.22;;;;;;;31.46;36.83;94941.25;5112236;28;20251;-80
2022/07/07 08:02:26;;;;;;;8.48;2.38;;;;;;;31.18;39.51;94919.38;5111877;28;20175;-79
2022/07/07 08:04:51;;;;;;;2.17;1.70;;;;;;;31.25;39.55;94929.69;5112193;28;20653;-84
2022/07/07 08:07:17;;;;;;;2.28;1.50;;;;;;;31.46;38.20;94938.53;5094022;28;20158;-79
2022/07/07 08:09:44;;;;;;;2.63;1.83;;;;;;;31.64;38.41;94948.09;5112320;28;20162;-81
2022/07/07 08:12:10;;;;;;;1.77;1.67;;;;;;;31.23;35.89;94945.56;5112217;28;20175;-81
2022/07/07 08:14:35;;;;;;;4.68;2.00;;;;;;;31.09;38.75;94932.28;5093942;28;20161;-78
2022/07/07 08:17:01;;;;;;;3.05;1.75;;;;;;;31.18;38.46;94940.34;5111684;28;20277;-80
2022/07/07 08:19:27;;;;;;;2.13;1.75;;;;;;;31.40;36.68;94945.31;5113198;28;20173;-79
2022/07/07 08:21:52;;;;;;;3.22;1.80;;;;;;;31.08;37.09;94942.38;5116028;28;20177;-79
2022/07/07 08:24:18;;;;;;;1.92;1.73;;;;;;;31.20;38.37;94929.94;5111825;28;20177;-80
2022/07/07 08:26:44;;;;;;;1.90;1.80;;;;;;;31.35;39.51;94940.13;5111965;28;20192;-79
2022/07/07 08:29:09;;;;;;;3.78;3.20;;;;;;;31.31;37.72;94933.78;5110191;28;20184;-79
2022/07/07 08:31:35;;;;;;;6.25;1.90;;;;;;;31.34;38.09;94943.97;5089440;28;20169;-78
2022/07/07 08:34:00;;;;;;;2.03;1.92;;;;;;;30.66;37.98;94930.81;5114121;28;20252;-80
2022/07/07 08:36:26;;;;;;;2.38;1.88;;;;;;;29.85;41.17;94934.03;5127807;27;20192;-78
2022/07/07 08:38:52;;;;;;;3.35;1.70;;;;;;;30.02;42.33;94944.00;5122014;27;20610;-78
2022/07/07 08:41:18;;;;;;;2.65;1.90;;;;;;;30.38;42.04;94924.34;5119282;27;20161;-78
2022/07/07 08:43:44;;;;;;;6.28;2.15;;;;;;;31.08;40.63;94950.53;5111860;28;20165;-77
2022/07/07 08:46:10;;;;;;;4.15;2.10;;;;;;;31.37;38.82;94938.66;5121090;27;20217;-80
2022/07/07 08:48:36;;;;;;;3.83;1.90;;;;;;;31.57;40.58;94936.16;5127811;27;20223;-78
2022/07/07 08:51:01;;;;;;;2.05;1.70;;;;;;;32.02;39.86;94952.31;5122159;27;20168;-78
2022/07/07 08:53:32;;;;;;;1.95;1.85;;;;;;;31.76;36.35;94934.44;5135609;27;20172;-78
2022/07/07 08:56:02;;;;;;;3.90;2.22;;;;;;;31.44;37.95;94940.81;5126708;27;20670;-78
2022/07/07 08:58:28;;;;;;;5.03;1.98;;;;;;;30.92;40.32;94916.16;5117714;27;20231;-78
2022/07/07 09:00:53;;;;;;;2.10;1.92;;;;;;;31.03;41.53;94944.50;5130268;27;20594;-78
2022/07/07 09:03:19;;;;;;;3.95;1.85;;;;;;;30.57;41.11;94940.19;5130924;27;20172;-77
2022/07/07 09:05:44;;;;;;;1.92;1.50;;;;;;;30.42;40.28;94908.19;5125226;27;20200;-77
2022/07/07 09:08:17;;;;;;;1.80;1.70;;;;;;;30.78;41.74;94932.78;5114319;28;20177;-78
2022/07/07 09:10:44;;;;;;;8.93;1.83;;;;;;;30.87;40.71;94921.81;5120702;27;20692;-79
2022/07/07 09:13:19;;;;;;;3.97;2.22;;;;;;;30.87;40.04;94928.06;5126340;27;20173;-79
2022/07/07 09:15:44;;;;;;;3.15;2.03;;;;;;;30.60;42.54;94925.94;5094406;28;20176;-77
2022/07/07 09:18:09;;;;;;;7.43;2.72;;;;;;;30.43;41.16;94928.81;5094319;28;20182;-78
2022/07/07 09:20:36;;;;;;;3.03;1.90;;;;;;;30.00;41.72;94914.50;5094042;28;20245;-78
2022/07/07 09:23:02;;;;;;;1.98;1.77;;;;;;;29.93;41.69;94935.88;5093733;28;20172;-77
2022/07/07 09:25:28;;;;;;;4.63;2.50;;;;;;;29.70;42.89;94947.41;5100583;27;20173;-76
2022/07/07 09:28:02;;;;;;;2.28;1.80;;;;;;;29.66;43.62;94941.06;5118619;27;20180;-77
2022/07/07 09:30:31;;;;;;;2.47;2.28;;;;;;;29.78;40.93;94935.69;5133589;27;20178;-77
2022/07/07 09:33:00;;;;;;;3.47;2.15;;;;;;;29.69;42.39;94932.25;5134429;27;20168;-77
2022/07/07 09:38:22;;;;;;;1.90;1.75;;;;;;;29.92;42.66;94930.81;5133907;27;20703;-78
2022/07/07 09:40:59;;;;;;;2.65;1.77;;;;;;;30.07;44.00;94932.16;5134170;27;20168;-77
2022/07/07 09:43:28;;;;;;;2.58;1.67;;;;;;;30.21;42.06;94921.81;5116016;27;20183;-77
2022/07/07 09:46:07;;;;;;;1.98;1.85;;;;;;;30.32;42.31;94921.06;5133805;27;20187;-78
2022/07/07 09:48:34;;;;;;;2.53;2.05;;;;;;;30.33;40.53;94919.94;5134273;27;20164;-78
2022/07/07 09:51:32;;;;;;;3.75;2.00;;;;;;;30.43;41.31;94916.00;5135065;27;20161;-80
2022/07/07 09:54:06;;;;;;;2.13;1.80;;;;;;;30.46;41.26;94914.53;5089179;27;20176;-78
2022/07/07 09:56:37;;;;;;;2.28;1.80;;;;;;;30.17;43.88;94897.25;5110139;28;20199;-77
2022/07/07 09:59:08;;;;;;;2.53;1.80;;;;;;;30.56;44.68;94920.38;5109649;28;20251;-77
2022/07/07 10:01:36;;;;;;;2.28;2.08;;;;;;;30.77;42.67;94905.94;5114922;27;20251;-77
2022/07/07 10:04:05;;;;;;;2.03;1.80;;;;;;;30.63;39.95;94892.63;5093993;28;20173;-77
2022/07/07 10:06:32;;;;;;;2.97;1.63;;;;;;;30.46;40.16;94926.19;5113965;27;20169;-77
2022/07/07 10:09:02;;;;;;;2.72;2.10;;;;;;;29.51;40.82;94920.69;5112379;28;20181;-77
2022/07/07 10:11:35;;;;;;;4.13;1.90;;;;;;;28.84;44.66;94916.84;5111182;28;20173;-77
2022/07/07 10:14:10;;;;;;;2.10;1.77;;;;;;;28.79;45.04;94914.34;5112265;28;20638;-76
2022/07/07 10:16:37;;;;;;;2.53;1.95;;;;;;;28.76;46.37;94909.56;5112871;28;20189;-77
2022/07/07 10:19:03;;;;;;;1.92;1.70;;;;;;;28.70;42.88;94893.78;5112951;28;20173;-77
2022/07/07 10:21:29;;;;;;;3.83;2.50;;;;;;;28.83;45.44;94903.63;5112986;28;20709;-77
2022/07/07 10:23:55;;;;;;;5.90;1.80;;;;;;;28.79;42.97;94878.31;5113036;28;20180;-78
2022/07/07 10:26:53;;;;;;;3.45;1.73;;;;;;;28.86;43.66;94889.44;5113326;28;20169;-78
2022/07/07 10:29:40;;;;;;;4.07;2.67;;;;;;;28.96;44.18;94893.69;5094600;28;20573;-77
2022/07/07 10:32:13;;;;;;;2.10;1.90;;;;;;;29.00;45.55;94902.75;5112625;28;20172;-77
2022/07/07 10:34:41;;;;;;;2.17;1.95;;;;;;;29.22;46.29;94895.16;5112393;28;20252;-77
2022/07/07 10:37:10;;;;;;;2.03;1.90;;;;;;;29.43;44.21;94887.06;5094243;28;20201;-77
2022/07/07 10:39:48;;;;;;;1.85;1.75;;;;;;;29.57;43.73;94887.63;5107994;28;20305;-76
2022/07/07 10:42:16;;;;;;;2.97;1.60;;;;;;;29.52;42.57;94887.00;5107632;28;20665;-76
2022/07/07 10:44:50;;;;;;;2.17;1.63;;;;;;;29.67;42.60;94883.72;5112268;28;20192;-76
2022/07/07 10:47:21;;;;;;;1.50;1.40;;;;;;;29.50;42.01;94875.69;5112083;28;20169;-77
2022/07/07 10:49:55;;;;;;;2.42;1.95;;;;;;;29.46;43.44;94872.84;5111810;28;20561;-76
2022/07/07 10:52:22;;;;;;;5.15;1.88;;;;;;;29.38;43.01;94879.13;5111992;28;20272;-77
2022/07/07 10:54:55;;;;;;;2.63;1.95;;;;;;;29.31;44.44;94884.25;5111958;28;20172;-76
2022/07/07 10:57:23;;;;;;;1.95;1.75;;;;;;;29.34;44.58;94885.50;5110705;28;20739;-76
2022/07/07 10:59:58;;;;;;;7.00;1.83;;;;;;;29.43;44.45;94878.94;5111390;28;20583;-77
2022/07/07 11:02:31;;;;;;;3.45;2.20;;;;;;;29.63;44.87;94878.16;5112190;28;20196;-77
2022/07/07 11:04:57;;;;;;;2.20;1.70;;;;;;;29.63;44.52;94878.16;5121857;27;20254;-79
2022/07/07 11:07:24;;;;;;;1.92;1.77;;;;;;;29.42;42.62;94871.13;5127076;27;20208;-78
2022/07/07 11:09:57;;;;;;;2.90;1.88;;;;;;;29.35;44.92;94868.09;5120331;27;20177;-80
2022/07/07 11:12:44;;;;;;;1.63;1.52;;;;;;;29.49;43.43;94874.13;5120585;27;20704;-79
2022/07/07 11:15:16;;;;;;;2.65;1.85;;;;;;;29.63;44.51;94866.50;5103620;27;20564;-78
2022/07/07 11:17:46;;;;;;;5.80;2.00;;;;;;;29.74;42.31;94866.91;5131820;27;20680;-76
2022/07/07 11:20:17;;;;;;;1.73;1.60;;;;;;;29.45;44.17;94849.56;5131754;27;20236;-76
2022/07/07 11:23:07;;;;;;;5.35;2.17;;;;;;;29.43;43.93;94851.00;5132094;27;20177;-76
2022/07/07 11:25:34;;;;;;;2.72;2.10;;;;;;;29.44;44.28;94847.97;5115902;27;20185;-77
2022/07/07 11:27:59;;;;;;;2.63;1.77;;;;;;;29.51;44.60;94825.72;5122885;27;20320;-78
2022/07/07 11:30:25;;;;;;;1.60;1.50;;;;;;;29.84;42.36;94842.84;5117161;27;20259;-77
2022/07/07 11:32:55;;;;;;;3.08;2.78;;;;;;;29.84;41.76;94844.78;5120615;27;20183;-78
2022/07/07 11:35:21;;;;;;;4.75;2.90;;;;;;;29.56;42.61;94847.25;5123460;27;20634;-79